This is the latest recevied weather packets stored in our database for station/object G4CVN. If no packets are shown the sender has not sent any weather packets the latest 10 day(s).
| Time | Temp. | Humidity | Pressure | Rain* | Wind** | Luminosity | Snow |
|---|---|---|---|---|---|---|---|
| 1777466116 | 18.89° C | 47% | 1025.7 hPa | 0 mm | - | 748 W/m² | - |
| 1777461936 | 18.89° C | 44% | 1026.1 hPa | 0 mm | - | 464 W/m² | - |
| 1777457737 | 17.78° C | 46% | 1026.1 hPa | 0 mm | - | 719 W/m² | - |
| 1777456517 | 17.22° C | 46% | 1026.1 hPa | 0 mm | - | 685 W/m² | - |
| 1777455916 | 17.22° C | 47% | 1026.2 hPa | 0 mm | - | 666 W/m² | - |
| 1777452316 | 16.11° C | 54% | 1026.1 hPa | 0 mm | - | 535 W/m² | - |
| 1777451116 | 15° C | 57% | 1026.1 hPa | 0 mm | - | 485 W/m² | - |
| 1777450516 | 14.44° C | 60% | 1026.1 hPa | 0 mm | - | 460 W/m² | - |
| 1777449937 | 14.44° C | 63% | 1026.1 hPa | 0 mm | - | 433 W/m² | - |
| 1777449316 | 13.89° C | 64% | 1025.8 hPa | 0 mm | - | 407 W/m² | - |
| 1777434917 | 8.33° C | 88% | 1025.7 hPa | 0 mm | - | 0 W/m² | - |
| 1777434317 | 8.33° C | 88% | 1025.8 hPa | 0 mm | - | 0 W/m² | - |
| 1777427717 | 7.78° C | 84% | 1026.1 hPa | 0 mm | - | 0 W/m² | - |
| 1777425917 | 8.33° C | 83% | 1026.3 hPa | 0 mm | - | 0 W/m² | - |
| 1777421117 | 8.33° C | 79% | 1026.6 hPa | 0 mm | - | 0 W/m² | - |
| 1777418737 | 8.89° C | 76% | 1026.9 hPa | 0 mm | - | 0 W/m² | - |
| 1777416917 | 8.89° C | 73% | 1027 hPa | 0 mm | - | 0 W/m² | - |
| 1777412117 | 10° C | 65% | 1027 hPa | 0 mm | - | 0 W/m² | - |
| 1777409737 | 10.56° C | 57% | 1026.9 hPa | 0 mm | - | 0 W/m² | - |
| 1777409157 | 11.11° C | 55% | 1026.9 hPa | 0 mm | - | 0 W/m² | - |
| 1777404917 | 12.22° C | 55% | 1026.3 hPa | 0 mm | - | 0 W/m² | - |
| 1777402517 | 13.33° C | 55% | 1026 hPa | 0 mm | - | 12 W/m² | - |
| 1777397117 | 15.56° C | 54% | 1025.5 hPa | 0 mm | - | 85 W/m² | - |
| 1777392337 | 16.67° C | 47% | 1025.3 hPa | 0 mm | - | 282 W/m² | - |
| 1777372537 | 12.78° C | 77% | 1027.8 hPa | 0 mm | - | 138 W/m² | - |
* Rain latest hour (hover to see other rain measurements)
** Current wind speed in m/s (hover to see current wind gust speed)